Time;durP1;ratioP1;P1;durP2;ratioP2;P2;SDS_P1;SDS_P2;PMS_P1;PMS_P2;Temp;Humidity;BMP_temperature;BMP_pressure;BME280_temperature;BME280_humidity;BME280_pressure;Samples;Min_cycle;Max_cycle;Signal;HPM_P1;HPM_P2
2023/12/12 00:02:21;;;;;;;7.22;1.62;;;8.00;99.90;;;;;;7345406;32;20535;-55
2023/12/12 00:06:24;;;;;;;10.20;2.03;;;8.10;99.90;;;;;;7344128;32;20232;-55
2023/12/12 00:10:26;;;;;;;8.35;1.90;;;8.10;99.90;;;;;;7349909;32;20218;-55
2023/12/12 00:14:28;;;;;;;8.02;1.45;;;8.00;99.90;;;;;;7344596;32;20237;-55
2023/12/12 00:18:35;;;;;;;9.60;1.83;;;8.00;99.90;;;;;;7346893;32;20241;-55
2023/12/12 00:22:37;;;;;;;12.20;2.25;;;7.90;99.90;;;;;;7346191;32;20604;-55
2023/12/12 00:26:39;;;;;;;5.78;1.92;;;8.00;99.90;;;;;;7342923;32;20096;-55
2023/12/12 00:30:41;;;;;;;10.50;2.28;;;8.00;99.90;;;;;;7347894;32;20119;-55
2023/12/12 00:34:42;;;;;;;13.40;2.03;;;8.00;99.90;;;;;;7347823;32;20186;-55
2023/12/12 00:38:44;;;;;;;10.57;2.37;;;7.90;99.90;;;;;;7345441;32;20196;-55
2023/12/12 00:42:46;;;;;;;12.90;2.08;;;7.90;99.90;;;;;;7349736;32;20107;-55
2023/12/12 00:46:48;;;;;;;11.52;2.20;;;7.80;99.90;;;;;;7348325;32;20103;-55
2023/12/12 00:50:49;;;;;;;9.35;2.00;;;7.90;99.90;;;;;;7343074;32;20256;-55
2023/12/12 00:54:51;;;;;;;10.48;2.17;;;7.90;99.90;;;;;;7346312;32;20545;-55
2023/12/12 00:58:53;;;;;;;10.60;2.08;;;7.80;99.90;;;;;;7348042;32;20095;-55
2023/12/12 01:02:54;;;;;;;9.23;1.90;;;7.90;99.90;;;;;;7346027;32;20118;-55
2023/12/12 01:06:56;;;;;;;16.60;3.20;;;8.00;99.90;;;;;;7349329;32;20179;-55
2023/12/12 01:10:58;;;;;;;14.77;2.87;;;8.10;99.90;;;;;;7350482;32;20194;-55
2023/12/12 01:15:00;;;;;;;8.27;2.15;;;8.20;99.90;;;;;;7350403;32;20131;-55
2023/12/12 01:19:02;;;;;;;18.58;2.78;;;8.10;99.90;;;;;;7347609;32;20552;-55
2023/12/12 01:23:04;;;;;;;10.25;1.87;;;8.20;99.90;;;;;;7346986;32;20102;-55
2023/12/12 01:27:06;;;;;;;11.95;2.10;;;8.20;99.90;;;;;;7347629;32;20165;-54
2023/12/12 01:31:07;;;;;;;13.43;2.78;;;8.10;99.90;;;;;;7344082;32;20233;-56
2023/12/12 01:35:09;;;;;;;14.10;2.53;;;8.10;99.90;;;;;;7345239;32;20108;-55
2023/12/12 01:39:11;;;;;;;15.02;2.30;;;8.10;99.90;;;;;;7346722;32;20369;-55
2023/12/12 01:43:21;;;;;;;15.50;2.87;;;8.20;99.90;;;;;;7349539;32;20186;-56
2023/12/12 01:47:23;;;;;;;12.32;2.42;;;8.10;99.90;;;;;;7350387;32;20174;-55
2023/12/12 01:51:25;;;;;;;14.80;2.67;;;8.10;99.90;;;;;;7345837;32;20222;-55
2023/12/12 01:55:27;;;;;;;15.80;2.10;;;8.00;99.90;;;;;;7351738;32;20195;-55
2023/12/12 01:59:30;;;;;;;12.70;2.30;;;7.90;99.90;;;;;;7348968;32;20795;-55
2023/12/12 02:03:33;;;;;;;13.95;2.42;;;7.80;99.90;;;;;;7348372;32;20336;-54
2023/12/12 02:07:36;;;;;;;14.60;2.53;;;7.80;99.90;;;;;;7349312;32;20103;-54
2023/12/12 02:11:38;;;;;;;10.55;2.30;;;7.70;99.90;;;;;;7350247;32;20118;-55
2023/12/12 02:15:39;;;;;;;13.60;1.98;;;7.60;99.90;;;;;;7343320;32;20175;-55
2023/12/12 02:19:41;;;;;;;20.17;2.67;;;7.50;99.90;;;;;;7352681;32;20163;-55
2023/12/12 02:23:43;;;;;;;16.15;2.33;;;7.40;99.90;;;;;;7342552;32;20126;-55
2023/12/12 02:27:46;;;;;;;13.27;2.25;;;7.40;99.90;;;;;;7343679;32;20099;-54
2023/12/12 02:31:48;;;;;;;10.07;2.25;;;7.30;99.90;;;;;;7348761;32;20279;-55
2023/12/12 02:35:50;;;;;;;11.00;1.77;;;7.30;99.90;;;;;;7347333;32;20565;-54
2023/12/12 02:39:52;;;;;;;13.25;2.45;;;7.20;99.90;;;;;;7351392;32;20115;-55
2023/12/12 02:43:53;;;;;;;9.63;1.92;;;7.20;99.90;;;;;;7343162;32;20193;-55
2023/12/12 02:47:55;;;;;;;17.87;2.90;;;7.10;99.90;;;;;;7348943;32;20122;-55
2023/12/12 02:51:57;;;;;;;9.35;2.35;;;7.10;99.90;;;;;;7347365;32;20187;-54
2023/12/12 02:55:59;;;;;;;8.25;1.92;;;7.10;99.90;;;;;;7346701;32;20225;-55
2023/12/12 03:00:01;;;;;;;11.23;2.05;;;7.10;99.90;;;;;;7347364;32;20095;-55
2023/12/12 03:04:03;;;;;;;13.07;2.37;;;7.10;99.90;;;;;;7343750;32;20453;-55
2023/12/12 03:08:05;;;;;;;14.23;2.20;;;7.00;99.90;;;;;;7349380;32;20189;-55
2023/12/12 03:12:06;;;;;;;12.10;2.70;;;7.00;99.90;;;;;;7350819;32;20106;-55
2023/12/12 03:16:08;;;;;;;12.77;2.45;;;7.10;99.90;;;;;;7344210;32;20940;-55
2023/12/12 03:20:10;;;;;;;17.30;3.03;;;7.00;99.90;;;;;;7349512;32;20137;-55
2023/12/12 03:24:12;;;;;;;14.95;3.05;;;7.10;99.90;;;;;;7346912;32;20099;-55
2023/12/12 03:28:13;;;;;;;18.60;2.80;;;7.20;99.90;;;;;;7351228;32;20186;-55
2023/12/12 03:32:15;;;;;;;12.88;2.53;;;7.20;99.90;;;;;;7342094;32;20310;-55
2023/12/12 03:36:17;;;;;;;11.93;2.30;;;7.10;99.90;;;;;;7343876;32;20567;-54
2023/12/12 03:40:19;;;;;;;10.98;2.42;;;7.20;99.90;;;;;;7340798;32;20208;-54
2023/12/12 03:44:21;;;;;;;12.60;2.87;;;7.00;99.90;;;;;;7348795;32;20139;-55
2023/12/12 03:48:22;;;;;;;14.55;2.67;;;6.90;99.90;;;;;;7346508;32;20162;-55
2023/12/12 03:52:24;;;;;;;16.83;2.40;;;6.80;99.90;;;;;;7347699;32;20164;-55
2023/12/12 03:56:26;;;;;;;14.48;2.35;;;6.70;99.90;;;;;;7348603;32;20589;-55
2023/12/12 04:00:28;;;;;;;16.17;2.10;;;6.60;99.90;;;;;;7341964;32;20167;-55
2023/12/12 04:04:29;;;;;;;15.98;2.70;;;6.50;99.90;;;;;;7343396;32;20284;-55
2023/12/12 04:08:31;;;;;;;13.40;2.28;;;6.40;99.90;;;;;;7340774;32;20118;-55
2023/12/12 04:12:34;;;;;;;14.93;2.58;;;6.40;99.90;;;;;;7345360;32;20160;-55
2023/12/12 04:16:36;;;;;;;12.63;2.12;;;6.30;99.90;;;;;;7346870;32;20174;-55
2023/12/12 04:20:38;;;;;;;14.70;2.42;;;6.30;99.90;;;;;;7342202;32;20148;-56
2023/12/12 04:24:39;;;;;;;14.02;2.28;;;6.30;99.90;;;;;;7344593;32;20221;-54
2023/12/12 04:28:41;;;;;;;19.52;2.22;;;6.30;99.90;;;;;;7341592;32;20122;-54
2023/12/12 04:32:43;;;;;;;14.98;2.78;;;6.30;99.90;;;;;;7340963;32;21162;-55
2023/12/12 04:36:45;;;;;;;18.67;2.75;;;6.20;99.90;;;;;;7344175;32;20095;-55
2023/12/12 04:40:46;;;;;;;13.88;2.50;;;6.30;99.90;;;;;;7342688;32;20108;-55
2023/12/12 04:44:48;;;;;;;17.33;3.20;;;6.20;99.90;;;;;;7340201;32;20095;-55
2023/12/12 04:48:51;;;;;;;14.63;2.80;;;6.20;99.90;;;;;;7346363;32;20257;-56
2023/12/12 04:52:53;;;;;;;10.65;2.83;;;6.10;99.90;;;;;;7340199;32;20110;-55
2023/12/12 04:56:55;;;;;;;7.97;2.20;;;6.10;99.90;;;;;;7348021;32;20111;-55
2023/12/12 05:00:57;;;;;;;10.45;2.47;;;6.20;99.90;;;;;;7342119;32;20214;-54
2023/12/12 05:04:59;;;;;;;11.80;2.55;;;6.30;99.90;;;;;;7347462;32;20103;-55
2023/12/12 05:09:00;;;;;;;14.00;2.83;;;6.20;99.90;;;;;;7348859;32;20091;-55
2023/12/12 05:13:02;;;;;;;9.68;2.25;;;6.20;99.90;;;;;;7345765;32;20145;-55
2023/12/12 05:17:04;;;;;;;16.05;2.72;;;6.20;99.90;;;;;;7344029;32;20139;-56
2023/12/12 05:21:11;;;;;;;9.88;2.05;;;6.20;99.90;;;;;;7348043;32;20099;-55
2023/12/12 05:25:13;;;;;;;18.98;2.67;;;6.20;99.90;;;;;;7344463;32;20182;-55
2023/12/12 05:29:15;;;;;;;13.30;2.30;;;6.40;99.90;;;;;;7345027;32;20103;-54
2023/12/12 05:33:17;;;;;;;19.52;3.80;;;6.40;99.90;;;;;;7345594;32;20209;-54
2023/12/12 05:37:19;;;;;;;18.60;3.33;;;6.60;99.90;;;;;;7340754;32;20295;-54
2023/12/12 05:41:20;;;;;;;17.48;2.95;;;6.80;99.90;;;;;;7340046;32;20197;-55
2023/12/12 05:45:23;;;;;;;16.95;3.22;;;6.80;99.90;;;;;;7340433;32;20100;-54
2023/12/12 05:49:24;;;;;;;17.77;3.20;;;6.90;99.90;;;;;;7340492;32;20107;-54
2023/12/12 05:53:26;;;;;;;20.90;3.08;;;6.90;99.90;;;;;;7339277;32;20513;-55
2023/12/12 05:57:28;;;;;;;19.67;2.65;;;6.90;99.90;;;;;;7347910;32;20121;-55
2023/12/12 06:01:31;;;;;;;17.30;2.58;;;7.00;99.90;;;;;;7345157;32;20214;-54
2023/12/12 06:05:33;;;;;;;15.75;2.47;;;7.00;99.90;;;;;;7342374;32;20287;-55
2023/12/12 06:09:34;;;;;;;20.60;3.22;;;7.00;99.90;;;;;;7347164;32;20114;-54
2023/12/12 06:13:36;;;;;;;16.90;2.67;;;7.10;99.90;;;;;;7349093;32;20099;-55
2023/12/12 06:17:38;;;;;;;14.82;2.83;;;7.20;99.90;;;;;;7343905;32;20498;-54
2023/12/12 06:21:40;;;;;;;19.50;3.25;;;7.30;99.90;;;;;;7350045;32;20238;-54
2023/12/12 06:25:42;;;;;;;17.77;3.20;;;7.40;99.90;;;;;;7350999;32;20177;-55
2023/12/12 06:29:44;;;;;;;13.32;3.20;;;7.40;99.90;;;;;;7347946;32;20151;-54
2023/12/12 06:33:46;;;;;;;14.18;2.90;;;7.40;99.90;;;;;;7340163;32;20331;-54
2023/12/12 06:37:48;;;;;;;13.07;2.80;;;7.40;99.90;;;;;;7340007;32;20124;-55
2023/12/12 06:41:50;;;;;;;15.07;3.65;;;7.40;99.90;;;;;;7348388;32;20569;-54
2023/12/12 06:45:51;;;;;;;20.75;4.10;;;7.40;99.90;;;;;;7346835;32;20171;-54
2023/12/12 06:49:53;;;;;;;21.30;4.03;;;7.50;99.90;;;;;;7348339;32;20103;-54
2023/12/12 06:53:58;;;;;;;18.60;3.53;;;7.50;99.90;;;;;;7346889;32;20137;-55
2023/12/12 06:58:00;;;;;;;18.55;3.53;;;7.60;99.90;;;;;;7353053;32;20152;-55
2023/12/12 07:02:01;;;;;;;20.70;2.70;;;7.50;99.90;;;;;;7345733;32;20117;-55
2023/12/12 07:06:04;;;;;;;22.73;3.35;;;7.60;99.90;;;;;;7347234;32;20222;-55
2023/12/12 07:10:06;;;;;;;14.07;2.72;;;7.50;99.90;;;;;;7346390;32;20182;-55
2023/12/12 07:14:08;;;;;;;22.48;3.40;;;7.60;99.90;;;;;;7350259;32;20113;-55
2023/12/12 07:18:12;;;;;;;17.30;3.10;;;7.60;99.90;;;;;;7345627;32;20369;-56
2023/12/12 07:22:15;;;;;;;21.62;3.53;;;7.60;99.90;;;;;;7349547;32;20186;-56
2023/12/12 07:26:18;;;;;;;18.95;3.15;;;7.60;99.90;;;;;;7345751;32;20095;-56
2023/12/12 07:30:20;;;;;;;16.65;3.95;;;7.70;99.90;;;;;;7351487;32;20130;-58
2023/12/12 07:34:21;;;;;;;17.80;3.58;;;7.70;99.90;;;;;;7347120;32;20250;-56
2023/12/12 07:38:23;;;;;;;19.15;3.33;;;7.70;99.90;;;;;;7350858;32;20108;-57
2023/12/12 07:42:25;;;;;;;19.50;3.17;;;7.70;99.90;;;;;;7345205;32;20223;-57
2023/12/12 07:46:37;;;;;;;14.52;2.70;;;7.70;99.90;;;;;;7332334;32;20568;-55
2023/12/12 07:50:40;;;;;;;23.62;3.17;;;7.70;99.90;;;;;;7348889;32;20126;-57
2023/12/12 07:54:43;;;;;;;17.50;3.37;;;7.80;99.90;;;;;;7346875;32;20284;-57
2023/12/12 07:58:44;;;;;;;19.33;3.05;;;7.90;99.90;;;;;;7343483;32;20306;-57
2023/12/12 08:02:46;;;;;;;14.23;3.25;;;8.00;99.90;;;;;;7334975;32;20087;-57
2023/12/12 08:06:48;;;;;;;15.43;3.08;;;8.10;99.90;;;;;;7345130;32;20559;-58
2023/12/12 08:10:50;;;;;;;15.20;3.03;;;8.10;99.90;;;;;;7349458;32;20122;-57
2023/12/12 08:14:55;;;;;;;14.38;2.75;;;8.10;99.90;;;;;;7338575;32;20515;-57
2023/12/12 08:18:57;;;;;;;17.05;3.12;;;8.20;99.90;;;;;;7340455;32;20226;-57
2023/12/12 08:22:59;;;;;;;17.80;3.15;;;8.20;99.90;;;;;;7349141;32;20129;-56
2023/12/12 08:27:01;;;;;;;19.70;2.62;;;8.20;99.90;;;;;;7331771;32;20222;-57
2023/12/12 08:31:03;;;;;;;15.02;2.85;;;8.20;99.90;;;;;;7337075;32;20199;-57
2023/12/12 08:35:06;;;;;;;13.82;2.80;;;8.30;99.90;;;;;;7342223;32;20113;-57
2023/12/12 08:39:09;;;;;;;14.38;3.15;;;8.30;99.90;;;;;;7344051;32;20392;-57
2023/12/12 08:43:11;;;;;;;15.82;3.40;;;8.40;99.90;;;;;;7346327;32;20125;-57
2023/12/12 08:47:12;;;;;;;22.08;3.30;;;8.50;99.90;;;;;;7346591;32;20103;-57
2023/12/12 08:51:14;;;;;;;19.35;2.75;;;8.40;99.90;;;;;;7345294;32;20126;-56
2023/12/12 08:55:16;;;;;;;16.23;2.90;;;8.40;99.90;;;;;;7341523;32;20103;-57
2023/12/12 08:59:21;;;;;;;18.27;2.60;;;8.40;99.90;;;;;;7333472;32;20189;-55
2023/12/12 09:03:23;;;;;;;15.43;2.58;;;8.40;99.90;;;;;;7348654;32;20114;-56
2023/12/12 09:07:25;;;;;;;9.32;2.35;;;8.40;99.90;;;;;;7338794;32;20124;-60
2023/12/12 09:11:27;;;;;;;12.02;2.72;;;8.50;99.90;;;;;;7344205;32;20210;-57
2023/12/12 09:15:30;;;;;;;11.40;2.50;;;8.60;99.90;;;;;;7346972;32;20116;-58
2023/12/12 09:19:32;;;;;;;14.43;2.67;;;8.70;99.90;;;;;;7338899;32;20213;-57
2023/12/12 09:23:34;;;;;;;12.80;2.72;;;8.80;99.90;;;;;;7340981;32;20571;-57
2023/12/12 09:27:36;;;;;;;12.37;2.92;;;8.90;99.90;;;;;;7342708;32;20198;-56
2023/12/12 09:31:37;;;;;;;12.90;2.25;;;9.00;99.90;;;;;;7350084;32;20638;-55
2023/12/12 09:35:39;;;;;;;15.93;2.50;;;9.20;99.90;;;;;;7347491;32;20100;-61
2023/12/12 09:39:41;;;;;;;12.55;2.33;;;9.20;99.90;;;;;;7349267;32;20118;-57
2023/12/12 09:43:45;;;;;;;12.05;3.40;;;9.50;99.90;;;;;;7340210;32;20239;-57
2023/12/12 09:47:47;;;;;;;16.83;3.17;;;9.40;99.90;;;;;;7345790;32;20111;-57
2023/12/12 09:51:52;;;;;;;10.93;2.50;;;9.40;99.90;;;;;;7350420;32;22482;-56
2023/12/12 09:55:54;;;;;;;11.70;2.45;;;9.40;99.90;;;;;;7324482;32;20481;-58
2023/12/12 09:59:58;;;;;;;17.75;2.20;;;9.10;99.90;;;;;;7350023;32;20095;-56
2023/12/12 10:04:04;;;;;;;10.15;2.47;;;9.10;99.90;;;;;;7348771;32;20131;-56
2023/12/12 10:08:06;;;;;;;16.35;3.22;;;9.20;99.90;;;;;;7344458;32;20155;-57
2023/12/12 10:12:16;;;;;;;13.82;2.25;;;9.10;99.90;;;;;;7345749;32;20097;-57
2023/12/12 10:16:17;;;;;;;15.15;2.42;;;9.10;99.90;;;;;;7343852;32;20167;-57
2023/12/12 10:20:25;;;;;;;10.18;1.92;;;9.00;99.90;;;;;;7339620;32;20244;-57
2023/12/12 10:24:27;;;;;;;10.60;2.53;;;8.90;99.90;;;;;;7343114;32;20108;-57
2023/12/12 10:28:29;;;;;;;14.25;2.35;;;9.00;99.90;;;;;;7344769;32;20732;-57
2023/12/12 10:32:30;;;;;;;9.65;1.92;;;9.40;99.90;;;;;;7348403;32;20106;-57
2023/12/12 10:36:35;;;;;;;8.25;1.62;;;9.60;99.90;;;;;;7348467;32;20117;-62
2023/12/12 10:40:37;;;;;;;14.68;2.12;;;9.70;99.90;;;;;;7347752;32;20147;-56
2023/12/12 10:44:42;;;;;;;10.68;2.40;;;9.70;99.90;;;;;;7348707;32;20205;-56
2023/12/12 10:48:47;;;;;;;12.48;2.00;;;9.90;99.90;;;;;;7344917;32;20173;-56
2023/12/12 10:52:49;;;;;;;9.25;1.30;;;10.10;99.90;;;;;;7348455;32;20125;-57
2023/12/12 10:56:53;;;;;;;7.22;1.33;;;10.30;99.90;;;;;;7346532;32;20230;-57
2023/12/12 11:00:57;;;;;;;11.40;1.87;;;10.40;99.90;;;;;;7347216;32;20126;-58
2023/12/12 11:05:00;;;;;;;9.38;1.62;;;10.60;99.90;;;;;;7344375;32;20208;-57
2023/12/12 11:09:03;;;;;;;8.98;1.60;;;10.70;99.90;;;;;;7346249;32;20194;-58
2023/12/12 11:13:06;;;;;;;10.23;1.73;;;10.80;99.90;;;;;;7342842;32;20118;-57
2023/12/12 11:17:09;;;;;;;14.60;1.95;;;10.80;99.90;;;;;;7341498;32;20775;-58
2023/12/12 11:21:42;;;;;;;6.20;1.37;;;10.90;99.90;;;;;;7345395;32;20240;-58
2023/12/12 11:25:44;;;;;;;12.35;1.62;;;11.00;99.90;;;;;;7349608;32;20144;-56
2023/12/12 11:29:46;;;;;;;11.15;1.70;;;10.90;99.90;;;;;;7345183;32;20615;-59
2023/12/12 11:34:08;;;;;;;9.32;1.58;;;10.90;99.90;;;;;;7346342;32;20302;-57
2023/12/12 11:38:33;;;;;;;10.03;2.13;;;10.90;99.90;;;;;;7345690;32;20532;-58
2023/12/12 11:42:35;;;;;;;9.80;2.10;;;11.00;99.90;;;;;;7346984;32;20258;-57
2023/12/12 11:46:37;;;;;;;10.57;2.05;;;11.00;99.90;;;;;;7344242;32;20121;-57
2023/12/12 11:50:39;;;;;;;11.98;2.20;;;10.90;99.90;;;;;;7348794;32;20126;-57
2023/12/12 11:54:51;;;;;;;6.57;1.62;;;11.00;99.90;;;;;;7339760;32;20241;-58
2023/12/12 11:58:55;;;;;;;14.02;2.25;;;11.00;99.90;;;;;;7342097;32;20743;-57
2023/12/12 12:02:57;;;;;;;14.20;2.45;;;10.90;99.90;;;;;;7347635;32;20278;-57
2023/12/12 12:07:01;;;;;;;5.70;1.52;;;10.80;99.90;;;;;;7346103;32;20239;-57
2023/12/12 12:11:03;;;;;;;7.82;2.40;;;10.80;99.90;;;;;;7346584;32;20103;-58
2023/12/12 12:15:06;;;;;;;6.62;1.52;;;10.80;99.90;;;;;;7344683;32;20209;-57
2023/12/12 12:19:28;;;;;;;10.35;1.42;;;10.70;99.90;;;;;;7342401;32;20159;-57
2023/12/12 12:23:32;;;;;;;8.88;1.45;;;10.50;99.90;;;;;;7344270;32;20095;-60
2023/12/12 12:27:48;;;;;;;9.80;1.70;;;10.40;99.90;;;;;;7349113;32;20100;-58
2023/12/12 12:31:49;;;;;;;5.30;1.52;;;10.30;99.90;;;;;;7345097;32;20483;-57
2023/12/12 12:35:51;;;;;;;5.85;1.52;;;10.20;99.90;;;;;;7346873;32;20236;-60
2023/12/12 12:39:53;;;;;;;7.05;1.30;;;10.10;99.90;;;;;;7348299;32;20148;-58
2023/12/12 12:43:57;;;;;;;3.70;1.17;;;10.00;99.90;;;;;;7344220;32;20247;-58
2023/12/12 12:47:58;;;;;;;5.75;1.27;;;10.00;99.90;;;;;;7344132;32;20118;-58
2023/12/12 12:52:00;;;;;;;5.72;1.15;;;10.00;99.90;;;;;;7338089;32;20174;-59
2023/12/12 12:56:02;;;;;;;3.92;1.12;;;9.90;99.90;;;;;;7344251;32;20230;-58
2023/12/12 13:00:06;;;;;;;4.78;1.30;;;9.80;99.90;;;;;;7341136;32;20107;-58
2023/12/12 13:04:12;;;;;;;5.32;1.42;;;9.90;99.90;;;;;;7345670;32;20099;-58
2023/12/12 13:08:15;;;;;;;6.00;1.40;;;9.90;99.90;;;;;;7348642;32;20095;-56
2023/12/12 13:12:17;;;;;;;6.30;1.30;;;9.90;99.90;;;;;;7348724;32;20119;-57
2023/12/12 13:16:19;;;;;;;8.15;1.25;;;9.90;99.90;;;;;;7346610;32;20565;-57
2023/12/12 13:20:21;;;;;;;7.90;1.60;;;10.00;99.90;;;;;;7349203;32;20891;-59
2023/12/12 13:24:23;;;;;;;9.35;1.42;;;10.00;99.90;;;;;;7349320;32;20195;-61
2023/12/12 13:28:24;;;;;;;8.20;1.45;;;10.10;99.90;;;;;;7345892;32;20107;-57
2023/12/12 13:32:26;;;;;;;6.78;1.55;;;9.90;99.90;;;;;;7344211;32;20148;-56
2023/12/12 13:36:28;;;;;;;6.90;1.60;;;9.70;99.90;;;;;;7346669;32;20264;-57
2023/12/12 13:40:31;;;;;;;5.90;1.30;;;9.60;99.90;;;;;;7348264;32;20095;-58
2023/12/12 13:44:33;;;;;;;5.35;1.65;;;9.50;99.90;;;;;;7349235;32;20377;-59
2023/12/12 13:48:35;;;;;;;9.77;1.85;;;9.50;99.90;;;;;;7346646;32;20577;-58
2023/12/12 13:52:37;;;;;;;7.78;1.87;;;9.40;99.90;;;;;;7343592;32;20103;-57
2023/12/12 13:56:40;;;;;;;8.15;1.67;;;9.30;99.90;;;;;;7347355;32;20229;-58
2023/12/12 14:00:43;;;;;;;7.72;1.70;;;9.30;99.90;;;;;;7340859;32;20162;-57
2023/12/12 14:04:45;;;;;;;9.77;1.85;;;9.20;99.90;;;;;;7338928;32;20558;-54
2023/12/12 14:08:46;;;;;;;8.48;1.90;;;9.40;99.90;;;;;;7348539;32;20218;-55
2023/12/12 14:12:48;;;;;;;7.53;1.92;;;9.40;99.90;;;;;;7347723;32;20198;-57
2023/12/12 14:16:50;;;;;;;9.13;2.00;;;9.50;99.90;;;;;;7328741;32;20242;-58
2023/12/12 14:20:55;;;;;;;8.93;2.40;;;9.40;99.90;;;;;;7351417;32;20212;-58
2023/12/12 14:24:57;;;;;;;6.97;1.95;;;9.40;99.90;;;;;;7349199;32;20107;-56
2023/12/12 14:28:59;;;;;;;9.20;2.55;;;9.40;99.90;;;;;;7345417;32;21181;-57
2023/12/12 14:33:01;;;;;;;8.00;2.05;;;9.30;99.90;;;;;;7348772;32;20120;-57
2023/12/12 14:37:03;;;;;;;12.48;3.30;;;9.30;99.90;;;;;;7348848;32;20336;-57
2023/12/12 14:41:05;;;;;;;10.05;2.12;;;9.30;99.90;;;;;;7344248;32;20221;-58
2023/12/12 14:45:07;;;;;;;12.60;2.40;;;9.30;99.90;;;;;;7352085;32;20191;-56
2023/12/12 14:49:09;;;;;;;8.45;2.65;;;9.30;99.90;;;;;;7348791;32;20099;-57
2023/12/12 14:53:11;;;;;;;8.63;2.35;;;9.20;99.90;;;;;;7353150;32;20519;-57
2023/12/12 14:57:14;;;;;;;6.85;2.67;;;9.30;99.90;;;;;;7350855;32;20127;-57
2023/12/12 15:01:22;;;;;;;7.70;2.12;;;9.30;99.90;;;;;;7349093;32;20134;-57
2023/12/12 15:05:24;;;;;;;7.43;2.53;;;9.30;99.90;;;;;;7345779;32;20110;-57
2023/12/12 15:09:26;;;;;;;12.35;3.03;;;9.20;99.90;;;;;;7351172;32;20103;-56
2023/12/12 15:13:28;;;;;;;10.35;2.85;;;9.20;99.90;;;;;;7349767;32;20129;-56
2023/12/12 15:17:29;;;;;;;14.00;3.17;;;9.20;99.90;;;;;;7347133;32;20103;-56
2023/12/12 15:21:32;;;;;;;11.27;3.22;;;9.20;99.90;;;;;;7350177;32;20278;-56
2023/12/12 15:25:33;;;;;;;7.22;2.37;;;9.20;99.90;;;;;;7348819;32;20305;-56
2023/12/12 15:29:45;;;;;;;10.52;3.42;;;9.20;99.90;;;;;;7338255;32;20489;-56
2023/12/12 15:33:47;;;;;;;6.95;2.90;;;9.20;99.90;;;;;;7350406;32;20529;-56
2023/12/12 15:37:49;;;;;;;7.97;2.72;;;9.10;99.90;;;;;;7351436;32;20190;-56
2023/12/12 15:41:51;;;;;;;8.57;3.17;;;9.20;99.90;;;;;;7353840;32;20115;-57
2023/12/12 15:45:53;;;;;;;12.95;4.45;;;9.20;99.90;;;;;;7342170;32;20210;-57
2023/12/12 15:49:55;;;;;;;8.13;3.83;;;9.20;99.90;;;;;;7347985;32;20156;-56
2023/12/12 15:54:00;;;;;;;10.68;3.55;;;9.10;99.90;;;;;;7345300;32;20252;-57
2023/12/12 15:58:01;;;;;;;11.85;3.28;;;9.10;99.90;;;;;;7348312;32;20183;-57
2023/12/12 16:02:03;;;;;;;14.77;4.00;;;9.10;99.90;;;;;;7345184;32;20186;-58
2023/12/12 16:06:06;;;;;;;12.35;3.67;;;9.20;99.90;;;;;;7337810;32;20158;-57
2023/12/12 16:10:09;;;;;;;8.55;3.40;;;9.20;99.90;;;;;;7346587;32;20181;-57
2023/12/12 16:14:13;;;;;;;11.52;3.40;;;9.20;99.90;;;;;;7345987;32;20184;-57
2023/12/12 16:18:15;;;;;;;10.35;3.80;;;9.20;99.90;;;;;;7334399;32;20214;-57
2023/12/12 16:22:17;;;;;;;10.82;3.75;;;9.20;99.90;;;;;;7346442;32;20645;-58
2023/12/12 16:26:19;;;;;;;13.73;4.22;;;9.20;99.90;;;;;;7344361;32;20172;-57
2023/12/12 16:30:21;;;;;;;9.98;3.80;;;9.20;99.90;;;;;;7349167;32;20182;-57
2023/12/12 16:34:23;;;;;;;9.93;3.62;;;9.20;99.90;;;;;;7343878;32;20177;-58
2023/12/12 16:38:25;;;;;;;13.00;4.07;;;9.20;99.90;;;;;;7343013;32;20115;-54
2023/12/12 16:42:27;;;;;;;11.57;3.45;;;9.30;99.90;;;;;;7343416;32;20140;-56
2023/12/12 16:46:31;;;;;;;9.63;4.07;;;9.30;99.90;;;;;;7343171;32;20194;-57
2023/12/12 16:50:33;;;;;;;5.55;3.25;;;9.30;99.90;;;;;;7325807;32;20118;-57
2023/12/12 16:54:35;;;;;;;9.80;3.78;;;9.30;99.90;;;;;;7348612;32;20508;-56
2023/12/12 16:58:37;;;;;;;8.40;3.70;;;9.30;99.90;;;;;;7341871;32;20130;-57
2023/12/12 17:02:39;;;;;;;10.07;3.05;;;9.40;99.90;;;;;;7343257;32;20107;-56
2023/12/12 17:06:40;;;;;;;8.70;3.58;;;9.30;99.90;;;;;;7341857;32;20103;-57
2023/12/12 17:10:42;;;;;;;9.27;3.67;;;9.40;99.90;;;;;;7346801;32;20273;-57
2023/12/12 17:14:44;;;;;;;8.65;3.90;;;9.40;99.90;;;;;;7344970;32;20266;-56
2023/12/12 17:18:46;;;;;;;9.90;4.12;;;9.40;99.90;;;;;;7344391;32;20249;-56
2023/12/12 17:22:48;;;;;;;7.53;4.00;;;9.50;99.90;;;;;;7341743;32;20254;-56
2023/12/12 17:26:49;;;;;;;8.05;3.65;;;9.40;99.90;;;;;;7343475;32;20154;-56
2023/12/12 17:30:52;;;;;;;6.68;3.50;;;9.40;99.90;;;;;;7341779;32;20122;-56
2023/12/12 17:34:54;;;;;;;9.55;3.83;;;9.40;99.90;;;;;;7342522;32;20119;-55
2023/12/12 17:38:55;;;;;;;11.50;4.60;;;9.30;99.90;;;;;;7339359;32;20099;-55
2023/12/12 17:42:57;;;;;;;6.85;4.40;;;9.40;99.90;;;;;;7345632;32;20123;-56
2023/12/12 17:46:59;;;;;;;9.85;4.53;;;9.30;99.90;;;;;;7348168;32;20167;-56
2023/12/12 17:51:00;;;;;;;6.20;4.10;;;9.30;99.90;;;;;;7348642;32;20182;-56
2023/12/12 17:55:04;;;;;;;8.20;4.18;;;9.30;99.90;;;;;;7345826;32;20111;-56
2023/12/12 17:59:06;;;;;;;9.77;4.12;;;9.30;99.90;;;;;;7347608;32;20155;-56
2023/12/12 18:03:09;;;;;;;9.43;4.65;;;9.30;99.90;;;;;;7348834;32;20103;-56
2023/12/12 18:07:11;;;;;;;8.57;4.40;;;9.30;99.90;;;;;;7350445;32;20549;-56
2023/12/12 18:11:16;;;;;;;10.18;4.35;;;9.30;99.90;;;;;;7351209;32;20791;-56
2023/12/12 18:15:18;;;;;;;8.02;4.20;;;9.20;99.90;;;;;;7349189;32;20584;-56
2023/12/12 18:19:20;;;;;;;9.10;4.72;;;9.30;99.90;;;;;;7351108;32;20270;-57
2023/12/12 18:23:25;;;;;;;6.82;3.80;;;9.30;99.90;;;;;;7350446;32;20649;-57
2023/12/12 18:27:26;;;;;;;9.80;4.75;;;9.20;99.90;;;;;;7348596;32;20126;-57
2023/12/12 18:31:29;;;;;;;8.82;4.30;;;9.10;99.90;;;;;;7348711;32;20088;-57
2023/12/12 18:35:32;;;;;;;9.77;5.15;;;9.10;99.90;;;;;;7343367;32;20091;-57
2023/12/12 18:39:34;;;;;;;8.13;4.22;;;9.30;99.90;;;;;;7346328;32;20224;-58
2023/12/12 18:43:35;;;;;;;8.85;4.28;;;9.30;99.90;;;;;;7350141;32;20178;-57
2023/12/12 18:47:37;;;;;;;8.07;5.22;;;9.20;99.90;;;;;;7349223;32;20133;-57
2023/12/12 18:51:40;;;;;;;10.18;5.80;;;9.20;99.90;;;;;;7346282;32;20209;-58
2023/12/12 18:55:42;;;;;;;9.80;5.32;;;9.10;99.90;;;;;;7345569;32;20351;-57
2023/12/12 18:59:44;;;;;;;9.13;4.97;;;9.10;99.90;;;;;;7348143;32;20512;-56
2023/12/12 19:03:46;;;;;;;10.27;5.70;;;9.10;99.90;;;;;;7346095;32;20210;-57
2023/12/12 19:07:48;;;;;;;9.75;5.28;;;9.00;99.90;;;;;;7335950;32;20230;-56
2023/12/12 19:11:51;;;;;;;10.45;5.07;;;8.90;99.90;;;;;;7345893;32;20190;-56
2023/12/12 19:15:53;;;;;;;16.77;6.55;;;8.90;99.90;;;;;;7345990;32;20249;-56
2023/12/12 19:19:55;;;;;;;11.73;7.43;;;9.10;99.90;;;;;;7347941;32;20163;-56
2023/12/12 19:23:56;;;;;;;9.70;5.68;;;9.20;99.90;;;;;;7348630;32;20540;-55
2023/12/12 19:27:58;;;;;;;10.82;6.70;;;9.30;99.90;;;;;;7347881;32;20793;-56
2023/12/12 19:32:03;;;;;;;11.12;6.87;;;9.30;99.90;;;;;;7336889;32;20858;-57
2023/12/12 19:36:06;;;;;;;8.95;5.87;;;9.30;99.90;;;;;;7342930;32;20187;-57
2023/12/12 19:40:09;;;;;;;9.90;5.93;;;9.30;99.90;;;;;;7346161;32;20260;-57
2023/12/12 19:44:11;;;;;;;8.68;5.72;;;9.20;99.90;;;;;;7350446;32;20666;-57
2023/12/12 19:48:13;;;;;;;8.63;5.07;;;9.30;99.90;;;;;;7342919;32;20218;-56
2023/12/12 19:52:15;;;;;;;12.60;6.15;;;9.10;99.90;;;;;;7345044;32;20178;-55
2023/12/12 19:56:16;;;;;;;7.82;5.43;;;9.10;99.90;;;;;;7343701;32;20677;-57
2023/12/12 20:00:18;;;;;;;7.68;6.25;;;9.00;99.90;;;;;;7346477;32;20423;-59
2023/12/12 20:04:20;;;;;;;7.62;6.07;;;8.90;99.90;;;;;;7339014;32;20228;-59
2023/12/12 20:08:22;;;;;;;9.18;6.10;;;8.80;99.90;;;;;;7345198;32;20103;-57
2023/12/12 20:12:27;;;;;;;8.98;5.87;;;8.80;99.90;;;;;;7344862;32;20110;-56
2023/12/12 20:16:29;;;;;;;10.95;6.40;;;8.70;99.90;;;;;;7345117;32;20135;-55
2023/12/12 20:20:31;;;;;;;9.35;6.57;;;8.60;99.90;;;;;;7333923;32;20186;-57
2023/12/12 20:24:33;;;;;;;10.57;7.53;;;8.60;99.90;;;;;;7339754;32;20099;-57
2023/12/12 20:28:34;;;;;;;10.50;6.00;;;8.50;99.90;;;;;;7343890;32;20183;-56
2023/12/12 20:32:36;;;;;;;9.48;6.15;;;8.50;99.90;;;;;;7342648;32;20092;-57
2023/12/12 20:36:39;;;;;;;11.63;5.53;;;8.50;99.90;;;;;;7350371;32;20433;-56
2023/12/12 20:40:41;;;;;;;8.73;5.80;;;8.40;99.90;;;;;;7344910;32;20125;-58
2023/12/12 20:44:42;;;;;;;8.82;5.90;;;8.40;99.90;;;;;;7341233;32;20713;-56
2023/12/12 20:48:44;;;;;;;9.50;5.70;;;8.40;99.90;;;;;;7346603;32;20099;-56
2023/12/12 20:52:46;;;;;;;10.05;6.28;;;8.50;99.90;;;;;;7334099;32;20095;-57
2023/12/12 20:56:48;;;;;;;10.18;6.40;;;8.50;99.90;;;;;;7348580;32;20131;-57
2023/12/12 21:00:49;;;;;;;9.88;5.80;;;8.40;99.90;;;;;;7343940;32;20122;-57
2023/12/12 21:04:51;;;;;;;7.30;5.30;;;8.50;99.90;;;;;;7343251;32;20193;-57
2023/12/12 21:08:55;;;;;;;9.52;5.72;;;8.40;99.90;;;;;;7342581;32;20281;-59